createdAt,value
2022-10-26T00:02:12.420Z,16.10
2022-10-26T00:04:42.230Z,15.38
2022-10-26T00:07:11.508Z,16.98
2022-10-26T00:09:41.438Z,18.63
2022-10-26T00:12:10.878Z,12.85
2022-10-26T00:14:41.152Z,9.65
2022-10-26T00:17:12.363Z,10.23
2022-10-26T00:19:42.602Z,12.77
2022-10-26T00:22:11.836Z,14.77
2022-10-26T00:24:41.340Z,16.58
2022-10-26T00:27:10.737Z,12.95
2022-10-26T00:29:40.734Z,17.07
2022-10-26T00:32:10.050Z,18.23
2022-10-26T00:34:41.740Z,19.57
2022-10-26T00:37:11.177Z,16.00
2022-10-26T00:39:40.948Z,13.15
2022-10-26T00:42:14.142Z,14.20
2022-10-26T00:45:02.774Z,21.17
2022-10-26T00:47:42.956Z,18.00
2022-10-26T00:50:18.022Z,16.75
2022-10-26T00:52:47.717Z,18.60
2022-10-26T00:55:21.749Z,13.45
2022-10-26T00:57:53.918Z,20.48
2022-10-26T01:00:24.346Z,14.95
2022-10-26T01:02:56.676Z,16.05
2022-10-26T01:05:28.672Z,13.98
2022-10-26T01:07:58.320Z,12.27
2022-10-26T01:10:29.165Z,15.25
2022-10-26T01:13:00.550Z,15.23
2022-10-26T01:15:37.474Z,15.02
2022-10-26T01:18:13.541Z,10.60
2022-10-26T01:21:12.622Z,14.65
2022-10-26T01:23:59.672Z,14.52
2022-10-26T01:27:05.956Z,15.60
2022-10-26T01:30:01.080Z,15.20
2022-10-26T01:32:37.362Z,14.23
2022-10-26T01:35:11.047Z,11.93
2022-10-26T01:37:48.405Z,20.90
2022-10-26T01:40:24.570Z,14.13
2022-10-26T01:42:56.856Z,16.20
2022-10-26T01:45:27.196Z,17.60
2022-10-26T01:47:59.637Z,14.00
2022-10-26T01:50:30.733Z,18.30
2022-10-26T01:53:00.941Z,14.15
2022-10-26T01:55:49.608Z,11.80
2022-10-26T01:58:44.852Z,21.02
2022-10-26T02:01:31.787Z,20.73
2022-10-26T02:04:12.246Z,19.75
2022-10-26T02:06:50.937Z,13.23
2022-10-26T02:09:26.673Z,13.00
2022-10-26T02:11:56.522Z,11.88
2022-10-26T02:14:32.779Z,23.65
2022-10-26T02:17:10.097Z,13.23
2022-10-26T02:19:46.259Z,22.88
2022-10-26T02:22:20.421Z,14.18
2022-10-26T02:24:54.277Z,14.18
2022-10-26T02:27:28.546Z,11.88
2022-10-26T02:30:00.054Z,12.32
2022-10-26T02:32:33.669Z,15.50
2022-10-26T02:35:06.709Z,12.13
2022-10-26T02:37:38.928Z,20.70
2022-10-26T02:40:14.206Z,16.48
2022-10-26T02:42:47.147Z,17.50
2022-10-26T02:45:20.788Z,16.73
2022-10-26T02:47:50.839Z,25.85
2022-10-26T02:55:30.603Z,21.25
2022-10-26T02:58:04.489Z,25.08
2022-10-26T03:00:35.064Z,17.90
2022-10-26T03:03:05.429Z,21.63
2022-10-26T03:05:37.429Z,29.08
2022-10-26T03:08:07.073Z,22.73
2022-10-26T03:10:42.079Z,26.38
2022-10-26T03:13:11.939Z,25.65
2022-10-26T03:15:41.909Z,24.65
2022-10-26T03:18:11.168Z,18.98
2022-10-26T03:20:42.176Z,23.60
2022-10-26T03:23:12.847Z,29.17
2022-10-26T03:25:42.366Z,28.23
2022-10-26T03:28:11.709Z,26.45
2022-10-26T03:30:41.693Z,24.80
2022-10-26T03:33:11.097Z,31.02
2022-10-26T03:35:42.420Z,38.20
2022-10-26T03:38:15.849Z,42.45
2022-10-26T03:40:48.752Z,29.05
2022-10-26T03:43:18.255Z,32.33
2022-10-26T03:45:48.369Z,30.38
2022-10-26T03:48:17.629Z,33.60
2022-10-26T03:50:49.104Z,36.78
2022-10-26T03:55:47.970Z,30.48
2022-10-26T03:58:17.489Z,27.40
2022-10-26T04:00:47.510Z,34.05
2022-10-26T04:03:16.784Z,34.13
2022-10-26T04:05:48.221Z,30.42
2022-10-26T04:08:17.797Z,29.30
2022-10-26T04:10:48.145Z,34.25
2022-10-26T04:13:17.452Z,31.33
2022-10-26T04:15:47.365Z,28.20
2022-10-26T04:18:16.618Z,40.17
2022-10-26T04:20:48.001Z,30.50
2022-10-26T04:23:18.922Z,28.88
2022-10-26T04:25:48.968Z,32.53
2022-10-26T04:28:18.477Z,28.02
2022-10-26T04:30:49.765Z,30.88
2022-10-26T04:33:19.296Z,29.40
2022-10-26T04:35:50.437Z,27.20
2022-10-26T04:40:52.367Z,36.65
2022-10-26T04:43:21.634Z,34.40
2022-10-26T04:45:51.506Z,40.78
2022-10-26T04:48:21.167Z,31.95
2022-10-26T04:50:52.218Z,33.20
2022-10-26T04:53:21.617Z,32.70
2022-10-26T04:55:51.512Z,35.83
2022-10-26T04:58:20.777Z,33.38
2022-10-26T05:00:50.908Z,33.22
2022-10-26T05:03:20.205Z,40.53
2022-10-26T05:05:50.073Z,27.58
2022-10-26T05:08:20.858Z,34.40
2022-10-26T05:10:51.373Z,24.70
2022-10-26T05:13:20.748Z,23.42
2022-10-26T05:15:51.009Z,19.48
2022-10-26T05:18:20.324Z,21.25
2022-10-26T05:20:51.080Z,16.67
2022-10-26T05:23:22.441Z,19.00
2022-10-26T05:25:52.412Z,22.63
2022-10-26T05:28:21.668Z,20.50
2022-10-26T05:30:51.571Z,24.05
2022-10-26T05:33:21.083Z,28.65
2022-10-26T05:35:50.943Z,22.65
2022-10-26T05:38:22.110Z,20.30
2022-10-26T05:40:52.422Z,22.85
2022-10-26T05:43:22.599Z,26.60
2022-10-26T05:45:52.876Z,31.45
2022-10-26T05:48:22.489Z,28.90
2022-10-26T05:50:52.236Z,29.37
2022-10-26T05:53:23.032Z,25.17
2022-10-26T05:55:53.645Z,25.65
2022-10-26T05:58:23.476Z,22.80
2022-10-26T06:01:19.029Z,22.67
2022-10-26T06:04:02.773Z,22.88
2022-10-26T06:06:39.837Z,20.20
2022-10-26T06:09:12.679Z,22.63
2022-10-26T06:11:43.270Z,21.10
2022-10-26T06:14:13.361Z,20.10
2022-10-26T06:16:58.302Z,21.75
2022-10-26T06:19:42.961Z,21.83
2022-10-26T06:22:25.370Z,18.42
2022-10-26T06:25:06.022Z,18.70
2022-10-26T06:27:45.801Z,17.15
2022-10-26T06:30:15.385Z,16.60
2022-10-26T06:32:47.800Z,18.13
2022-10-26T06:35:27.104Z,18.30
2022-10-26T06:37:58.617Z,14.70
2022-10-26T06:40:32.760Z,14.93
2022-10-26T06:43:03.119Z,16.67
2022-10-26T06:45:33.742Z,16.77
2022-10-26T06:50:39.821Z,22.27
2022-10-26T06:53:20.985Z,15.73
2022-10-26T06:58:24.181Z,19.05
2022-10-26T07:00:55.639Z,12.65
2022-10-26T07:03:25.214Z,11.02
2022-10-26T07:05:54.549Z,10.82
2022-10-26T07:08:24.570Z,12.40
2022-10-26T07:10:55.290Z,19.25
2022-10-26T07:13:25.325Z,14.82
2022-10-26T07:15:54.593Z,14.13
2022-10-26T07:18:24.103Z,16.80
2022-10-26T07:20:53.403Z,24.13
2022-10-26T07:23:23.987Z,22.02
2022-10-26T07:25:54.847Z,11.85
2022-10-26T07:28:24.390Z,11.23
2022-10-26T07:30:56.223Z,13.10
2022-10-26T07:33:26.028Z,12.98
2022-10-26T07:35:56.347Z,11.40
2022-10-26T07:38:26.228Z,10.25
2022-10-26T07:40:56.943Z,10.95
2022-10-26T07:43:26.866Z,10.00
2022-10-26T07:45:56.233Z,8.60
2022-10-26T07:48:26.454Z,16.33
2022-10-26T07:50:55.697Z,10.18
2022-10-26T07:53:27.896Z,10.80
2022-10-26T07:55:59.716Z,19.40
2022-10-26T07:58:29.284Z,9.68
2022-10-26T08:00:58.874Z,10.00
2022-10-26T08:03:28.558Z,14.77
2022-10-26T08:05:58.444Z,16.58
2022-10-26T08:08:28.372Z,11.68
2022-10-26T08:10:59.088Z,18.15
2022-10-26T08:13:28.867Z,11.65
2022-10-26T08:16:01.434Z,31.40
2022-10-26T08:18:31.297Z,10.77
2022-10-26T08:21:10.865Z,16.88
2022-10-26T08:23:42.528Z,13.90
2022-10-26T08:26:13.393Z,16.27
2022-10-26T08:28:43.405Z,12.05
2022-10-26T08:31:12.661Z,8.90
2022-10-26T08:33:44.926Z,14.13
2022-10-26T08:36:20.141Z,14.52
2022-10-26T08:38:50.323Z,17.33
2022-10-26T08:41:26.380Z,11.80
2022-10-26T08:44:00.765Z,10.32
2022-10-26T08:46:34.426Z,17.23
2022-10-26T08:49:10.734Z,9.50
2022-10-26T08:51:43.670Z,11.95
2022-10-26T08:54:18.605Z,10.40
2022-10-26T08:56:52.253Z,17.23
2022-10-26T08:59:31.558Z,11.35
2022-10-26T09:02:03.000Z,11.70
2022-10-26T09:04:34.452Z,8.02
2022-10-26T09:07:13.727Z,10.52
2022-10-26T09:09:54.053Z,9.57
2022-10-26T09:12:32.204Z,9.45
2022-10-26T09:15:15.423Z,12.48
2022-10-26T09:17:51.441Z,9.80
2022-10-26T09:20:44.648Z,11.02
2022-10-26T09:23:29.897Z,9.02
2022-10-26T09:26:02.101Z,10.13
2022-10-26T09:28:36.814Z,9.63
2022-10-26T09:31:07.230Z,11.20
2022-10-26T09:33:41.302Z,10.57
2022-10-26T09:36:16.798Z,12.32
2022-10-26T09:38:53.149Z,12.45
2022-10-26T09:41:31.805Z,9.45
2022-10-26T09:44:09.254Z,10.68
2022-10-26T09:46:48.308Z,6.40
2022-10-26T09:49:19.702Z,12.35
2022-10-26T09:51:51.366Z,9.73
2022-10-26T09:54:23.041Z,10.50
2022-10-26T09:56:55.075Z,11.25
2022-10-26T09:59:27.815Z,8.48
2022-10-26T10:01:57.679Z,6.40
2022-10-26T10:04:27.390Z,14.90
2022-10-26T10:07:15.168Z,9.50
2022-10-26T10:09:44.531Z,11.07
2022-10-26T10:12:22.720Z,6.97
2022-10-26T10:15:00.793Z,9.20
2022-10-26T10:17:30.850Z,8.95
2022-10-26T10:20:13.222Z,7.30
2022-10-26T10:22:58.923Z,6.57
2022-10-26T10:25:36.490Z,9.38
2022-10-26T10:28:22.086Z,6.50
2022-10-26T10:30:59.648Z,7.53
2022-10-26T10:33:37.721Z,10.20
2022-10-26T10:36:15.153Z,9.02
2022-10-26T10:38:46.810Z,4.05
2022-10-26T10:41:23.413Z,6.30
2022-10-26T10:43:56.982Z,12.50
2022-10-26T10:46:29.613Z,6.55
2022-10-26T10:49:05.271Z,6.40
2022-10-26T10:51:40.258Z,5.97
2022-10-26T10:54:24.657Z,6.53
2022-10-26T10:56:57.117Z,11.18
2022-10-26T10:59:49.782Z,7.00
2022-10-26T11:02:55.677Z,13.40
2022-10-26T11:05:35.518Z,5.25
2022-10-26T11:08:09.852Z,5.72
2022-10-26T11:10:43.455Z,5.18
2022-10-26T11:13:21.868Z,11.38
2022-10-26T11:16:05.998Z,9.50
2022-10-26T11:18:40.683Z,8.00
2022-10-26T11:21:21.375Z,9.07
2022-10-26T11:23:54.568Z,6.95
2022-10-26T11:26:30.420Z,7.38
2022-10-26T11:29:03.802Z,3.45
2022-10-26T11:31:40.295Z,7.38
2022-10-26T11:34:28.196Z,6.28
2022-10-26T11:37:05.203Z,12.43
2022-10-26T11:39:44.008Z,9.35
2022-10-26T11:42:25.423Z,8.50
2022-10-26T11:45:01.210Z,11.30
2022-10-26T11:47:40.179Z,12.43
2022-10-26T11:50:18.896Z,10.70
2022-10-26T11:52:53.266Z,5.53
2022-10-26T11:55:24.030Z,6.68
2022-10-26T11:57:56.004Z,6.50
2022-10-26T12:00:25.892Z,7.90
2022-10-26T12:02:59.987Z,11.48
2022-10-26T12:05:44.658Z,7.35
2022-10-26T12:08:30.098Z,5.72
2022-10-26T12:13:44.623Z,9.40
2022-10-26T12:16:22.253Z,5.78
2022-10-26T12:18:56.645Z,7.15
2022-10-26T12:21:31.066Z,5.85
2022-10-26T12:24:02.098Z,9.35
2022-10-26T12:29:41.305Z,6.70
2022-10-26T12:32:53.178Z,15.93
2022-10-26T12:35:37.515Z,12.35
2022-10-26T12:38:55.966Z,6.90
2022-10-26T12:41:29.553Z,11.35
2022-10-26T12:44:02.721Z,5.97
2022-10-26T12:46:43.994Z,4.03
2022-10-26T12:49:58.681Z,5.35
2022-10-26T12:52:41.189Z,8.00
2022-10-26T12:55:49.923Z,6.40
2022-10-26T12:58:54.836Z,3.13
2022-10-26T13:01:53.191Z,3.75
2022-10-26T13:04:51.952Z,4.57
2022-10-26T13:07:24.376Z,4.60
2022-10-26T13:10:04.784Z,6.85
2022-10-26T13:12:47.074Z,6.33
2022-10-26T13:15:26.196Z,6.13
2022-10-26T13:18:03.728Z,5.82
2022-10-26T13:20:34.761Z,5.45
2022-10-26T13:25:34.160Z,6.20
2022-10-26T13:28:07.133Z,6.80
2022-10-26T13:30:48.591Z,6.68
2022-10-26T13:33:34.200Z,4.55
2022-10-26T13:36:20.012Z,6.20
2022-10-26T13:38:49.944Z,7.13
2022-10-26T13:41:28.649Z,8.77
2022-10-26T13:44:00.341Z,6.38
2022-10-26T13:46:31.231Z,5.13
2022-10-26T13:49:11.293Z,7.68
2022-10-26T13:51:44.783Z,6.28
2022-10-26T13:54:26.721Z,15.98
2022-10-26T13:57:15.214Z,7.50
2022-10-26T13:59:47.272Z,9.32
2022-10-26T14:02:24.346Z,7.75
2022-10-26T14:05:03.006Z,6.93
2022-10-26T14:07:38.517Z,7.40
2022-10-26T14:10:08.206Z,7.20
2022-10-26T14:12:39.767Z,9.85
2022-10-26T14:15:10.695Z,10.30
2022-10-26T14:17:40.705Z,7.53
2022-10-26T14:20:20.313Z,7.20
2022-10-26T14:22:50.122Z,7.90
2022-10-26T14:25:30.978Z,9.38
2022-10-26T14:28:24.123Z,5.13
2022-10-26T14:30:53.847Z,6.88
2022-10-26T14:33:29.064Z,9.10
2022-10-26T14:36:00.161Z,8.85
2022-10-26T14:38:37.009Z,5.10
2022-10-26T14:41:06.572Z,11.07
2022-10-26T14:43:36.489Z,8.65
2022-10-26T14:46:05.767Z,11.73
2022-10-26T14:48:37.273Z,8.02
2022-10-26T14:51:11.063Z,12.80
2022-10-26T14:53:42.738Z,12.05
2022-10-26T14:56:24.991Z,12.68
2022-10-26T14:58:56.101Z,17.00
2022-10-26T15:01:49.728Z,10.23
2022-10-26T15:04:41.414Z,12.30
2022-10-26T15:09:48.174Z,13.27
2022-10-26T15:12:24.065Z,12.68
2022-10-26T15:14:55.060Z,11.27
2022-10-26T15:17:32.306Z,6.47
2022-10-26T15:20:06.672Z,4.90
2022-10-26T15:22:37.591Z,7.45
2022-10-26T15:25:08.622Z,5.30
2022-10-26T15:27:38.149Z,3.95
2022-10-26T15:30:20.145Z,12.82
2022-10-26T15:32:49.748Z,8.02
2022-10-26T15:35:32.001Z,9.63
2022-10-26T15:38:02.857Z,8.20
2022-10-26T15:40:33.631Z,6.57
2022-10-26T15:43:03.425Z,6.90
2022-10-26T15:45:35.689Z,8.65
2022-10-26T15:48:21.772Z,7.30
2022-10-26T15:50:51.619Z,11.57
2022-10-26T15:53:23.821Z,12.02
2022-10-26T15:55:55.686Z,11.02
2022-10-26T15:58:27.076Z,10.40
2022-10-26T16:00:57.060Z,9.77
2022-10-26T16:03:27.926Z,8.48
2022-10-26T16:06:00.816Z,15.05
2022-10-26T16:08:32.953Z,10.18
2022-10-26T16:11:02.817Z,8.82
2022-10-26T16:13:32.193Z,10.55
2022-10-26T16:16:02.634Z,9.23
2022-10-26T16:18:32.566Z,13.88
2022-10-26T16:21:02.450Z,9.38
2022-10-26T16:23:33.389Z,14.02
2022-10-26T16:26:06.209Z,7.57
2022-10-26T16:28:36.212Z,12.93
2022-10-26T16:31:07.175Z,8.10
2022-10-26T16:36:10.448Z,8.00
2022-10-26T16:43:42.051Z,11.83
2022-10-26T16:46:14.244Z,10.40
2022-10-26T16:48:45.152Z,12.00
2022-10-26T16:51:16.948Z,14.27
2022-10-26T16:53:49.405Z,17.13
2022-10-26T16:56:22.028Z,12.90
2022-10-26T16:58:51.666Z,12.43
2022-10-26T17:01:23.253Z,16.00
2022-10-26T17:03:54.032Z,12.25
2022-10-26T17:06:24.770Z,12.38
2022-10-26T17:08:55.673Z,12.13
2022-10-26T17:11:25.652Z,13.25
2022-10-26T17:13:56.197Z,12.65
2022-10-26T17:16:26.827Z,14.52
2022-10-26T17:18:56.288Z,14.27
2022-10-26T17:21:31.167Z,20.55
2022-10-26T17:24:02.088Z,13.90
2022-10-26T17:26:31.756Z,11.27
2022-10-26T17:29:01.192Z,13.05
2022-10-26T17:31:31.678Z,19.58
2022-10-26T17:34:01.750Z,9.57
2022-10-26T17:36:32.005Z,12.50
2022-10-26T17:39:03.730Z,14.55
2022-10-26T17:41:33.378Z,10.88
2022-10-26T17:44:03.118Z,13.88
2022-10-26T17:46:33.185Z,12.38
2022-10-26T17:49:03.018Z,10.65
2022-10-26T17:51:33.073Z,16.35
2022-10-26T17:54:03.928Z,11.75
2022-10-26T17:56:35.849Z,14.40
2022-10-26T17:59:08.464Z,18.10
2022-10-26T18:01:38.683Z,13.48
2022-10-26T18:04:08.362Z,20.00
2022-10-26T18:06:38.290Z,19.95
2022-10-26T18:09:12.314Z,12.73
2022-10-26T18:11:41.966Z,15.52
2022-10-26T18:14:12.147Z,11.80
2022-10-26T18:16:42.674Z,10.00
2022-10-26T18:19:12.439Z,12.48
2022-10-26T18:21:42.195Z,15.93
2022-10-26T18:24:13.327Z,18.05
2022-10-26T18:26:43.336Z,16.67
2022-10-26T18:29:14.755Z,19.58
2022-10-26T18:31:46.655Z,13.65
2022-10-26T18:34:15.932Z,9.38
2022-10-26T18:36:45.609Z,16.67
2022-10-26T18:39:16.656Z,16.55
2022-10-26T18:41:46.989Z,13.75
2022-10-26T18:44:19.658Z,15.38
2022-10-26T18:46:52.252Z,18.70
2022-10-26T18:49:22.123Z,18.35
2022-10-26T18:51:52.096Z,17.42
2022-10-26T18:54:22.972Z,17.08
2022-10-26T18:56:52.881Z,18.42
2022-10-26T18:59:22.108Z,19.92
2022-10-26T19:01:52.757Z,23.33
2022-10-26T19:04:23.321Z,18.77
2022-10-26T19:06:53.443Z,21.55
2022-10-26T19:09:25.797Z,20.27
2022-10-26T19:11:57.964Z,21.00
2022-10-26T19:14:29.379Z,23.60
2022-10-26T19:16:59.237Z,24.00
2022-10-26T19:19:30.817Z,18.98
2022-10-26T19:22:01.325Z,20.58
2022-10-26T19:24:32.161Z,24.90
2022-10-26T19:27:02.111Z,23.15
2022-10-26T19:29:31.578Z,20.58
2022-10-26T19:32:03.122Z,25.63
2022-10-26T19:34:32.793Z,25.40
2022-10-26T19:37:04.187Z,23.77
2022-10-26T19:39:35.093Z,28.90
2022-10-26T19:42:07.446Z,26.55
2022-10-26T19:44:36.743Z,20.83
2022-10-26T19:47:06.945Z,26.17
2022-10-26T19:49:36.344Z,23.70
2022-10-26T19:52:06.198Z,27.35
2022-10-26T19:54:36.978Z,28.30
2022-10-26T19:57:06.857Z,30.88
2022-10-26T19:59:36.218Z,32.92
2022-10-26T20:02:06.130Z,31.33
2022-10-26T20:04:35.398Z,29.08
2022-10-26T20:07:05.335Z,26.27
2022-10-26T20:09:36.094Z,31.58
2022-10-26T20:12:06.478Z,31.77
2022-10-26T20:14:35.753Z,36.63
2022-10-26T20:17:06.079Z,30.92
2022-10-26T20:19:35.403Z,28.23
2022-10-26T20:22:05.062Z,33.92
2022-10-26T20:24:36.022Z,33.97
2022-10-26T20:27:06.830Z,36.25
2022-10-26T20:29:36.559Z,31.55
2022-10-26T20:32:07.099Z,30.70
2022-10-26T20:34:36.819Z,33.72
2022-10-26T20:37:06.825Z,32.45
2022-10-26T20:39:38.476Z,34.53
2022-10-26T20:42:08.866Z,41.00
2022-10-26T20:44:44.643Z,28.10
2022-10-26T20:47:15.090Z,30.75
2022-10-26T20:49:45.161Z,31.98
2022-10-26T20:52:21.576Z,32.80
2022-10-26T20:54:57.857Z,36.30
2022-10-26T20:57:32.211Z,43.50
2022-10-26T21:00:05.886Z,34.33
2022-10-26T21:02:35.681Z,33.88
2022-10-26T21:05:05.286Z,42.75
2022-10-26T21:07:35.458Z,38.88
2022-10-26T21:10:07.037Z,35.28
2022-10-26T21:12:37.898Z,31.10
2022-10-26T21:15:08.552Z,31.50
2022-10-26T21:17:38.931Z,35.97
2022-10-26T21:20:09.227Z,31.67
2022-10-26T21:22:38.725Z,36.20
2022-10-26T21:25:10.599Z,34.33
2022-10-26T21:27:40.129Z,38.17
2022-10-26T21:30:11.166Z,40.55
2022-10-26T21:32:40.730Z,33.65
2022-10-26T21:35:10.477Z,31.38
2022-10-26T21:37:40.407Z,36.10
2022-10-26T21:40:13.018Z,36.75
2022-10-26T21:42:42.989Z,31.70
2022-10-26T21:45:12.533Z,36.35
2022-10-26T21:47:42.400Z,34.42
2022-10-26T21:50:12.269Z,30.90
2022-10-26T21:52:41.807Z,34.20
2022-10-26T21:55:13.913Z,33.42
2022-10-26T21:57:44.397Z,35.17
2022-10-26T22:00:15.113Z,34.13
2022-10-26T22:02:45.182Z,32.45
2022-10-26T22:05:14.809Z,36.28
2022-10-26T22:07:44.804Z,32.45
2022-10-26T22:10:15.564Z,35.15
2022-10-26T22:12:45.574Z,38.08
2022-10-26T22:15:14.979Z,34.17
2022-10-26T22:17:44.649Z,34.28
2022-10-26T22:20:14.403Z,36.33
2022-10-26T22:22:44.346Z,34.63
2022-10-26T22:25:15.118Z,36.53
2022-10-26T22:27:45.225Z,35.28
2022-10-26T22:30:15.101Z,38.30
2022-10-26T22:32:45.141Z,36.25
2022-10-26T22:35:30.173Z,41.83
2022-10-26T22:38:00.101Z,34.92
2022-10-26T22:40:30.902Z,36.35
2022-10-26T22:43:00.762Z,38.78
2022-10-26T22:45:30.132Z,37.13
2022-10-26T22:48:00.019Z,38.05
2022-10-26T22:50:29.457Z,38.83
2022-10-26T22:52:59.658Z,36.77
2022-10-26T22:55:30.474Z,35.95
2022-10-26T22:58:00.565Z,34.30
2022-10-26T23:00:29.816Z,41.42
2022-10-26T23:02:59.798Z,40.75
2022-10-26T23:05:29.162Z,38.63
2022-10-26T23:07:59.181Z,37.55
2022-10-26T23:10:30.117Z,40.13
2022-10-26T23:13:00.290Z,36.70
2022-10-26T23:15:29.533Z,39.47
2022-10-26T23:17:59.053Z,41.95
2022-10-26T23:20:28.379Z,39.65
2022-10-26T23:22:57.901Z,41.88
2022-10-26T23:25:27.360Z,42.00
2022-10-26T23:27:58.704Z,37.53
2022-10-26T23:30:28.075Z,43.30
2022-10-26T23:32:57.809Z,38.15
2022-10-26T23:35:27.211Z,39.65
2022-10-26T23:37:59.350Z,38.10
2022-10-26T23:40:29.148Z,44.10
2022-10-26T23:43:00.776Z,38.88
2022-10-26T23:45:30.001Z,35.42
2022-10-26T23:47:59.849Z,39.78
2022-10-26T23:50:29.201Z,32.55
2022-10-26T23:52:59.050Z,39.88
2022-10-26T23:55:28.282Z,38.00
2022-10-26T23:57:59.696Z,37.20
